createdAt,value
2024-03-12T00:01:11.706Z,59.06
2024-03-12T00:06:42.567Z,58.49
2024-03-12T00:12:00.734Z,58.00
2024-03-12T00:17:29.457Z,57.71
2024-03-12T00:22:45.973Z,57.39
2024-03-12T00:28:03.151Z,57.60
2024-03-12T00:33:20.886Z,57.17
2024-03-12T00:38:23.227Z,57.58
2024-03-12T00:43:27.392Z,57.73
2024-03-12T00:48:26.283Z,57.56
2024-03-12T00:53:26.413Z,57.47
2024-03-12T00:58:27.534Z,57.12
2024-03-12T01:03:27.184Z,57.28
2024-03-12T01:08:32.490Z,57.23
2024-03-12T01:13:29.856Z,57.62
2024-03-12T01:18:27.954Z,57.58
2024-03-12T01:23:27.719Z,57.79
2024-03-12T01:28:29.095Z,58.12
2024-03-12T01:33:32.923Z,58.30
2024-03-12T01:38:43.247Z,58.69
2024-03-12T01:44:09.364Z,59.34
2024-03-12T01:49:14.922Z,59.32
2024-03-12T01:54:27.552Z,59.41
2024-03-12T01:59:30.952Z,59.64
2024-03-12T02:04:32.083Z,59.71
2024-03-12T02:09:50.534Z,59.97
2024-03-12T02:14:54.947Z,59.74
2024-03-12T02:20:00.944Z,59.63
2024-03-12T02:25:07.200Z,59.80
2024-03-12T02:30:17.189Z,59.71
2024-03-12T02:35:20.694Z,59.47
2024-03-12T02:40:26.991Z,59.41
2024-03-12T02:45:33.641Z,59.71
2024-03-12T02:50:42.108Z,59.13
2024-03-12T02:55:46.932Z,58.92
2024-03-12T03:00:57.162Z,58.68
2024-03-12T03:05:58.900Z,58.18
2024-03-12T03:11:10.492Z,57.86
2024-03-12T03:16:12.809Z,57.39
2024-03-12T03:21:22.694Z,57.81
2024-03-12T03:26:25.756Z,57.76
2024-03-12T03:31:30.360Z,57.74
2024-03-12T03:36:33.412Z,57.88
2024-03-12T03:41:39.794Z,57.26
2024-03-12T03:46:38.167Z,57.15
2024-03-12T03:51:38.769Z,56.31
2024-03-12T03:56:48.488Z,56.08
2024-03-12T04:01:53.318Z,56.27
2024-03-12T04:07:30.503Z,56.29
2024-03-12T04:12:56.897Z,56.25
2024-03-12T04:17:55.133Z,56.36
2024-03-12T04:22:55.429Z,56.26
2024-03-12T04:27:54.464Z,56.37
2024-03-12T04:33:00.073Z,56.38
2024-03-12T04:38:00.600Z,56.12
2024-03-12T04:42:58.926Z,56.05
2024-03-12T04:47:57.728Z,56.12
2024-03-12T04:52:55.876Z,55.71
2024-03-12T04:57:56.641Z,55.63
2024-03-12T05:20:59.847Z,55.96
2024-03-12T05:27:25.460Z,55.86
2024-03-12T05:32:50.211Z,55.60
2024-03-12T05:38:15.520Z,55.48
2024-03-12T05:43:37.566Z,55.14
2024-03-12T05:48:46.758Z,55.32
2024-03-12T05:54:22.483Z,55.16
2024-03-12T05:59:43.614Z,55.22
2024-03-12T06:04:47.346Z,56.55
2024-03-12T06:09:46.441Z,57.60
2024-03-12T06:14:55.046Z,58.74
2024-03-12T06:19:52.952Z,59.49
2024-03-12T06:24:54.813Z,60.62
2024-03-12T06:30:07.841Z,61.70
2024-03-12T06:35:14.846Z,62.70
2024-03-12T06:40:17.766Z,63.76
2024-03-12T06:45:29.114Z,64.70
2024-03-12T06:50:44.705Z,65.24
2024-03-12T06:56:10.433Z,66.32
2024-03-12T07:01:21.604Z,67.13
2024-03-12T07:06:20.941Z,67.84
2024-03-12T07:11:35.360Z,68.55
2024-03-12T07:17:14.899Z,69.01
2024-03-12T07:28:48.253Z,69.95
2024-03-12T07:34:20.773Z,70.33
2024-03-12T07:39:42.260Z,70.79
2024-03-12T07:45:34.051Z,71.26
2024-03-12T07:50:46.551Z,71.40
2024-03-12T07:56:04.922Z,71.28
2024-03-12T08:07:24.498Z,72.05
2024-03-12T08:12:45.348Z,72.56
2024-03-12T08:24:11.532Z,73.53
2024-03-12T08:29:08.852Z,73.59
2024-03-12T08:34:07.087Z,73.60
2024-03-12T08:39:11.929Z,73.84
2024-03-12T08:44:10.104Z,74.18
2024-03-12T08:49:11.671Z,74.33
2024-03-12T08:54:10.282Z,74.53
2024-03-12T08:59:09.521Z,74.57
2024-03-12T09:04:36.502Z,74.12
2024-03-12T09:11:14.144Z,74.16
2024-03-12T09:17:07.814Z,73.97
2024-03-12T09:28:20.245Z,73.39
2024-03-12T09:33:20.628Z,73.03
2024-03-12T09:38:31.385Z,72.13
2024-03-12T09:43:34.709Z,70.96
2024-03-12T09:48:34.951Z,71.24
2024-03-12T09:53:33.915Z,71.27
2024-03-12T09:58:31.412Z,71.82
2024-03-12T10:03:30.531Z,71.41
2024-03-12T10:08:31.864Z,70.70
2024-03-12T10:13:33.535Z,70.88
2024-03-12T10:19:01.595Z,70.88
2024-03-12T10:24:19.737Z,68.83
2024-03-12T10:29:19.941Z,69.80
2024-03-12T10:34:20.498Z,67.85
2024-03-12T10:39:29.787Z,66.96
2024-03-12T10:44:32.756Z,67.05
2024-03-12T10:49:31.392Z,67.57
2024-03-12T10:54:35.525Z,67.14
2024-03-12T10:59:38.292Z,66.74
2024-03-12T11:04:38.154Z,63.45
2024-03-12T11:09:39.008Z,62.97
2024-03-12T11:14:49.722Z,60.92
2024-03-12T11:19:53.109Z,62.08
2024-03-12T11:24:51.994Z,59.56
2024-03-12T11:30:19.404Z,58.58
2024-03-12T11:35:30.293Z,59.22
2024-03-12T11:40:29.505Z,59.06
2024-03-12T11:45:39.175Z,58.24
2024-03-12T11:50:40.162Z,58.21
2024-03-12T11:55:59.720Z,56.40
2024-03-12T12:00:59.576Z,57.08
2024-03-12T12:06:00.125Z,56.58
2024-03-12T12:11:05.997Z,55.77
2024-03-12T12:16:05.507Z,56.07
2024-03-12T12:21:09.910Z,58.18
2024-03-12T12:26:12.582Z,57.31
2024-03-12T12:31:17.006Z,54.75
2024-03-12T12:36:16.874Z,55.21
2024-03-12T12:41:14.741Z,57.12
2024-03-12T12:46:20.834Z,56.56
2024-03-12T12:51:20.802Z,56.87
2024-03-12T12:56:19.809Z,55.01
2024-03-12T13:01:24.826Z,55.18
2024-03-12T13:06:27.435Z,55.53
2024-03-12T13:11:30.314Z,57.16
2024-03-12T13:16:39.874Z,55.19
2024-03-12T13:21:38.171Z,54.63
2024-03-12T13:26:36.425Z,55.78
2024-03-12T13:31:34.917Z,54.69
2024-03-12T13:36:32.344Z,55.14
2024-03-12T13:41:30.083Z,55.24
2024-03-12T13:46:28.725Z,55.31
2024-03-12T13:51:27.007Z,55.13
2024-03-12T13:56:24.492Z,55.09
2024-03-12T14:01:23.619Z,56.15
2024-03-12T14:06:21.155Z,56.66
2024-03-12T14:11:25.924Z,57.05
2024-03-12T14:16:27.094Z,57.12
2024-03-12T14:21:28.880Z,56.42
2024-03-12T14:26:29.761Z,55.93
2024-03-12T14:31:28.335Z,56.89
2024-03-12T14:36:26.129Z,55.92
2024-03-12T14:41:27.797Z,55.46
2024-03-12T14:46:27.133Z,55.97
2024-03-12T14:51:24.849Z,56.66
2024-03-12T14:56:24.736Z,57.30
2024-03-12T15:01:23.683Z,57.47
2024-03-12T15:11:58.835Z,58.50
2024-03-12T15:17:35.340Z,59.04
2024-03-12T15:23:10.611Z,59.61
2024-03-12T15:28:11.260Z,60.29
2024-03-12T15:33:09.871Z,60.65
2024-03-12T15:38:13.737Z,60.83
2024-03-12T15:43:29.988Z,60.74
2024-03-12T15:48:41.830Z,60.78
2024-03-12T15:54:05.471Z,60.47
2024-03-12T15:59:10.893Z,60.46
2024-03-12T16:04:35.780Z,60.40
2024-03-12T16:09:36.295Z,61.00
2024-03-12T16:14:35.000Z,60.86
2024-03-12T16:19:44.328Z,61.26
2024-03-12T16:24:45.984Z,61.42
2024-03-12T16:29:56.952Z,61.65
2024-03-12T16:35:23.094Z,61.62
2024-03-12T16:40:55.799Z,61.33
2024-03-12T16:46:40.523Z,61.95
2024-03-12T17:05:35.042Z,62.11
2024-03-12T17:19:23.837Z,62.11
2024-03-12T17:32:35.712Z,61.73
2024-03-12T17:38:49.935Z,61.93
2024-03-12T19:20:38.736Z,62.87
